Time;durP1;ratioP1;P1;durP2;ratioP2;P2;SDS_P1;SDS_P2;PMS_P1;PMS_P2;Temp;Humidity;BMP_temperature;BMP_pressure;BME280_temperature;BME280_humidity;BME280_pressure;Samples;Min_cycle;Max_cycle;Signal;HPM_P1;HPM_P2
2022/12/03 05:00:31;;;;;;;28.03;23.87;;;4.70;99.90;;;;;;6182033;22;20744;-63
2022/12/03 05:02:58;;;;;;;30.30;23.10;;;4.60;99.90;;;;;;6278633;22;20397;-63
2022/12/03 05:05:40;;;;;;;30.73;24.73;;;4.70;99.90;;;;;;6228210;22;20386;-63
2022/12/03 05:08:07;;;;;;;28.67;23.23;;;4.70;99.90;;;;;;6279492;22;20413;-63
2022/12/03 05:10:33;;;;;;;29.70;24.07;;;4.70;99.90;;;;;;6273943;22;20501;-63
2022/12/03 05:13:00;;;;;;;29.83;23.37;;;4.80;99.90;;;;;;6248299;23;20931;-63
2022/12/03 05:15:27;;;;;;;28.63;23.33;;;4.80;99.90;;;;;;6248264;23;20414;-62
2022/12/03 05:17:55;;;;;;;26.13;22.93;;;4.80;99.90;;;;;;6248071;23;20411;-62
2022/12/03 05:23:06;;;;;;;30.30;25.23;;;4.80;99.90;;;;;;6247994;23;20406;-62
2022/12/03 05:25:32;;;;;;;29.13;23.63;;;4.70;99.90;;;;;;6247776;23;20419;-63
2022/12/03 05:27:59;;;;;;;31.27;24.87;;;4.60;99.90;;;;;;6247780;23;20411;-63
2022/12/03 05:30:25;;;;;;;31.90;24.63;;;4.60;99.90;;;;;;6247437;22;20465;-63
2022/12/03 05:32:52;;;;;;;31.67;25.80;;;4.60;99.90;;;;;;6247485;23;20465;-63
2022/12/03 05:35:20;;;;;;;32.73;25.10;;;4.60;99.90;;;;;;6247625;23;20461;-63
2022/12/03 05:37:47;;;;;;;31.50;25.10;;;4.70;99.90;;;;;;6247286;23;20418;-63
2022/12/03 05:40:14;;;;;;;31.80;24.43;;;4.70;99.90;;;;;;6247348;22;20469;-63
2022/12/03 05:42:52;;;;;;;31.30;24.90;;;4.70;99.90;;;;;;6247278;23;20924;-63
2022/12/03 05:45:19;;;;;;;32.47;24.93;;;4.70;99.90;;;;;;6247384;23;20864;-63
2022/12/03 05:47:45;;;;;;;32.77;25.20;;;4.70;99.90;;;;;;6247483;23;20422;-63
2022/12/03 05:50:12;;;;;;;33.23;25.13;;;4.70;99.90;;;;;;6247493;22;20410;-63
2022/12/03 05:52:40;;;;;;;37.50;27.07;;;4.70;99.90;;;;;;6247459;23;20439;-63
2022/12/03 05:55:08;;;;;;;38.73;26.57;;;4.70;99.90;;;;;;6247257;23;20441;-63
2022/12/03 05:57:35;;;;;;;33.47;25.50;;;4.70;99.90;;;;;;6247597;23;20494;-63
2022/12/03 06:00:02;;;;;;;34.20;25.90;;;4.70;99.90;;;;;;6247508;23;20445;-63
2022/12/03 06:02:28;;;;;;;36.13;25.80;;;4.70;99.90;;;;;;6246965;22;20484;-63
2022/12/03 06:04:55;;;;;;;37.37;28.47;;;4.70;99.90;;;;;;6247448;23;20414;-63
2022/12/03 06:07:21;;;;;;;34.37;26.63;;;4.70;99.90;;;;;;6246968;23;20899;-63
2022/12/03 06:09:50;;;;;;;36.57;26.77;;;4.70;99.90;;;;;;6247313;23;20476;-63
2022/12/03 06:12:16;;;;;;;37.80;26.50;;;4.70;99.90;;;;;;6248265;22;20431;-63
2022/12/03 06:14:43;;;;;;;39.30;28.53;;;4.60;99.90;;;;;;6247376;23;20417;-65
2022/12/03 06:17:09;;;;;;;39.87;29.00;;;4.60;99.90;;;;;;6247304;23;20414;-63
2022/12/03 06:19:36;;;;;;;38.10;26.87;;;4.60;99.90;;;;;;6246787;23;20713;-63
2022/12/03 06:22:03;;;;;;;40.20;28.23;;;4.60;99.90;;;;;;6247156;22;20457;-63
2022/12/03 06:24:30;;;;;;;37.80;27.97;;;4.60;99.90;;;;;;6246896;23;20892;-63
2022/12/03 06:26:57;;;;;;;36.60;27.20;;;4.60;99.90;;;;;;6247283;23;20892;-63
2022/12/03 06:29:24;;;;;;;42.40;29.67;;;4.60;99.90;;;;;;6247042;23;20790;-61
2022/12/03 06:31:51;;;;;;;41.07;28.10;;;4.60;99.90;;;;;;6247313;22;20434;-64
2022/12/03 06:34:17;;;;;;;35.43;27.57;;;4.60;99.90;;;;;;6247108;23;20435;-64
2022/12/03 06:36:45;;;;;;;42.57;30.10;;;4.60;99.90;;;;;;6246712;23;20476;-64
2022/12/03 06:39:12;;;;;;;45.17;29.30;;;4.60;99.90;;;;;;6246981;23;20402;-64
2022/12/03 06:41:39;;;;;;;44.07;30.30;;;4.60;99.90;;;;;;6246702;22;20435;-64
2022/12/03 06:44:07;;;;;;;45.00;30.27;;;4.60;99.90;;;;;;6247083;23;20443;-64
2022/12/03 06:46:33;;;;;;;40.73;30.47;;;4.50;99.90;;;;;;6246771;23;20418;-64
2022/12/03 06:49:00;;;;;;;44.20;30.05;;;4.50;99.90;;;;;;6247037;23;20463;-65
2022/12/03 06:51:27;;;;;;;46.20;32.60;;;4.60;99.90;;;;;;6246805;22;20281;-64
2022/12/03 06:53:53;;;;;;;43.57;30.50;;;4.60;99.90;;;;;;6246642;23;20942;-64
2022/12/03 06:56:20;;;;;;;49.80;33.20;;;4.60;99.90;;;;;;6246692;23;20895;-63
2022/12/03 06:58:47;;;;;;;46.50;30.67;;;4.50;99.90;;;;;;6246363;23;20441;-63
2022/12/03 07:01:15;;;;;;;51.03;31.97;;;4.50;99.90;;;;;;6246164;22;21001;-64
2022/12/03 07:03:41;;;;;;;47.07;29.67;;;4.50;99.90;;;;;;6246503;23;20407;-64
2022/12/03 07:06:08;;;;;;;48.67;31.67;;;4.50;99.90;;;;;;6247496;23;20411;-64
2022/12/03 07:08:35;;;;;;;49.37;31.57;;;4.50;99.90;;;;;;6246687;23;20411;-63
2022/12/03 07:11:01;;;;;;;49.40;31.33;;;4.60;99.90;;;;;;6246624;22;20431;-64
2022/12/03 07:13:28;;;;;;;48.13;31.70;;;4.50;99.90;;;;;;6246451;23;20492;-64
2022/12/03 07:15:55;;;;;;;46.33;31.20;;;4.60;99.90;;;;;;6247035;23;20411;-65
2022/12/03 07:18:23;;;;;;;48.13;31.70;;;4.60;99.90;;;;;;6247244;23;20418;-66
2022/12/03 07:20:49;;;;;;;45.77;30.50;;;4.50;99.90;;;;;;6246062;22;20430;-65
2022/12/03 07:23:16;;;;;;;52.60;32.80;;;4.50;99.90;;;;;;6246087;23;20953;-64
2022/12/03 07:25:43;;;;;;;49.83;31.30;;;4.50;99.90;;;;;;6246592;23;20411;-64
2022/12/03 07:28:09;;;;;;;52.93;32.57;;;4.50;99.90;;;;;;6246405;23;20415;-65
2022/12/03 07:30:36;;;;;;;50.00;32.13;;;4.60;99.90;;;;;;6246163;22;20814;-64
2022/12/03 07:33:02;;;;;;;60.57;34.90;;;4.60;99.90;;;;;;6246440;23;20803;-65
2022/12/03 07:35:30;;;;;;;54.27;34.43;;;4.70;99.90;;;;;;6246617;23;20464;-65
2022/12/03 07:37:57;;;;;;;49.60;32.80;;;4.70;99.90;;;;;;6247393;23;20415;-66
2022/12/03 07:40:25;;;;;;;53.57;33.13;;;4.70;99.90;;;;;;6247145;22;20414;-66
2022/12/03 07:42:51;;;;;;;54.20;33.53;;;4.70;99.90;;;;;;6247287;23;20411;-65
2022/12/03 07:45:18;;;;;;;53.23;32.70;;;4.70;99.90;;;;;;6248005;23;20468;-65
2022/12/03 07:47:45;;;;;;;54.53;33.90;;;4.70;99.90;;;;;;6247120;23;20465;-65
2022/12/03 07:50:12;;;;;;;50.80;32.50;;;4.80;99.90;;;;;;6247196;22;20414;-65
2022/12/03 07:52:40;;;;;;;47.97;31.87;;;4.80;99.90;;;;;;6247255;23;20411;-65
2022/12/03 07:55:07;;;;;;;55.27;32.67;;;4.80;99.90;;;;;;6247549;23;20452;-65
2022/12/03 07:57:34;;;;;;;47.37;31.47;;;4.70;99.90;;;;;;6247521;23;20464;-65
2022/12/03 08:00:00;;;;;;;52.13;31.77;;;4.80;99.90;;;;;;6248008;23;20510;-65
2022/12/03 08:02:27;;;;;;;49.63;31.70;;;4.80;99.90;;;;;;6247281;22;20807;-65
2022/12/03 08:04:54;;;;;;;44.90;31.63;;;4.80;99.90;;;;;;6248049;23;20403;-66
2022/12/03 08:07:20;;;;;;;49.13;32.77;;;4.90;99.90;;;;;;6247748;23;20407;-68
2022/12/03 08:09:49;;;;;;;48.80;30.70;;;4.80;99.90;;;;;;6248254;23;20407;-67
2022/12/03 08:12:19;;;;;;;46.37;29.83;;;4.80;99.90;;;;;;6248782;22;20448;-68
2022/12/03 08:14:46;;;;;;;51.50;33.80;;;4.90;99.90;;;;;;6249270;23;20438;-66
2022/12/03 08:17:15;;;;;;;47.83;30.87;;;4.90;99.90;;;;;;6249881;23;20540;-67
2022/12/03 08:19:46;;;;;;;52.27;32.67;;;4.90;99.90;;;;;;6251480;23;20446;-67
2022/12/03 08:22:14;;;;;;;50.57;34.00;;;4.80;99.90;;;;;;6250944;22;20541;-67
2022/12/03 08:24:42;;;;;;;50.00;32.23;;;4.80;99.90;;;;;;6252348;23;20431;-66
2022/12/03 08:27:17;;;;;;;53.87;33.07;;;4.80;99.90;;;;;;6249003;23;20859;-67
2022/12/03 08:29:43;;;;;;;48.37;32.60;;;4.80;99.90;;;;;;6249129;23;20788;-67
2022/12/03 08:32:11;;;;;;;50.87;34.40;;;4.80;99.90;;;;;;6249182;22;20505;-67
2022/12/03 08:34:41;;;;;;;50.20;33.20;;;4.70;99.90;;;;;;6249045;23;20484;-67
2022/12/03 08:37:14;;;;;;;48.53;32.60;;;4.70;99.90;;;;;;6248914;23;20496;-66
2022/12/03 08:39:45;;;;;;;50.17;32.37;;;4.80;99.90;;;;;;6248833;23;20395;-67
2022/12/03 08:45:41;;;;;;;50.83;32.60;;;4.80;99.90;;;;;;6257717;23;20450;-66
2022/12/03 08:48:33;;;;;;;47.50;33.20;;;4.70;99.90;;;;;;6263630;23;20425;-66
2022/12/03 08:51:03;;;;;;;52.23;33.13;;;4.80;99.90;;;;;;6267843;22;20433;-65
2022/12/03 08:53:33;;;;;;;52.57;35.60;;;4.80;99.90;;;;;;6250342;23;20445;-65
2022/12/03 08:56:01;;;;;;;54.83;34.47;;;4.90;99.90;;;;;;6250937;23;20407;-72
2022/12/03 08:58:36;;;;;;;45.60;31.70;;;4.90;99.90;;;;;;6248969;23;20485;-74
2022/12/03 09:01:24;;;;;;;47.47;31.97;;;5.00;99.90;;;;;;6248068;22;20438;-65
2022/12/03 09:03:53;;;;;;;45.10;32.00;;;5.10;99.90;;;;;;6248323;23;20392;-66
2022/12/03 09:06:20;;;;;;;46.10;30.83;;;5.10;99.90;;;;;;6251465;23;20407;-66
2022/12/03 09:08:46;;;;;;;43.47;29.10;;;5.10;99.90;;;;;;6252061;23;20415;-70
2022/12/03 09:11:14;;;;;;;39.03;29.20;;;5.10;99.90;;;;;;6249586;22;20465;-67
2022/12/03 09:13:42;;;;;;;35.70;28.47;;;5.10;99.90;;;;;;6249625;23;20481;-66
2022/12/03 09:16:08;;;;;;;34.37;25.83;;;5.10;99.90;;;;;;6248678;23;20410;-67
2022/12/03 09:18:35;;;;;;;33.37;25.23;;;5.10;99.90;;;;;;6248237;23;20414;-71
2022/12/03 09:21:02;;;;;;;32.87;27.00;;;5.10;99.90;;;;;;6248228;22;20431;-67
2022/12/03 09:23:29;;;;;;;35.53;26.23;;;5.10;99.90;;;;;;6248586;23;20407;-69
2022/12/03 09:25:55;;;;;;;32.20;25.90;;;5.20;99.90;;;;;;6248666;23;20411;-71
2022/12/03 09:28:22;;;;;;;31.20;25.70;;;5.20;99.90;;;;;;6247487;23;20411;-69
2022/12/03 09:30:50;;;;;;;32.33;26.20;;;5.10;99.90;;;;;;6247693;22;20485;-69
2022/12/03 09:33:17;;;;;;;30.60;25.60;;;5.10;99.90;;;;;;6247812;23;20484;-67
2022/12/03 09:35:43;;;;;;;32.80;26.60;;;5.00;99.90;;;;;;6247770;23;20414;-68
2022/12/03 09:38:11;;;;;;;30.10;24.77;;;5.00;99.90;;;;;;6247747;23;20414;-68
2022/12/03 09:40:37;;;;;;;31.90;25.67;;;4.90;99.90;;;;;;6248180;22;20430;-66
2022/12/03 09:43:05;;;;;;;29.80;25.30;;;4.90;99.90;;;;;;6247732;23;20410;-68
2022/12/03 09:45:31;;;;;;;29.63;24.97;;;4.90;99.90;;;;;;6247676;23;20456;-69
2022/12/03 09:48:02;;;;;;;29.80;26.00;;;4.80;99.90;;;;;;6247619;23;20892;-69
2022/12/03 09:50:31;;;;;;;31.37;25.20;;;4.80;99.90;;;;;;6247582;22;20457;-69
2022/12/03 09:53:01;;;;;;;30.27;25.10;;;4.80;99.90;;;;;;6248118;23;20411;-66
2022/12/03 09:55:28;;;;;;;28.20;22.97;;;4.80;99.90;;;;;;6248413;23;20830;-66
2022/12/03 09:57:56;;;;;;;26.80;23.90;;;4.80;99.90;;;;;;6248262;23;20775;-65
2022/12/03 10:00:25;;;;;;;26.63;23.63;;;4.80;99.90;;;;;;6247206;22;20958;-66
2022/12/03 10:02:55;;;;;;;30.13;24.53;;;4.80;99.90;;;;;;6247584;23;20445;-65
2022/12/03 10:05:23;;;;;;;27.43;23.67;;;4.90;99.90;;;;;;6247558;23;20411;-64
2022/12/03 10:07:52;;;;;;;26.33;22.90;;;4.90;99.90;;;;;;6247713;23;20410;-64
2022/12/03 10:10:21;;;;;;;32.27;25.70;;;4.90;99.90;;;;;;6248314;22;20900;-64
2022/12/03 10:12:48;;;;;;;33.87;25.87;;;5.10;99.90;;;;;;6248235;23;20411;-66
2022/12/03 10:15:18;;;;;;;27.03;22.60;;;5.20;99.90;;;;;;6248482;23;20703;-63
2022/12/03 10:17:46;;;;;;;25.67;22.27;;;5.50;99.90;;;;;;6247963;23;20931;-64
2022/12/03 10:20:15;;;;;;;28.27;23.70;;;5.80;99.90;;;;;;6247215;22;20410;-65
2022/12/03 10:22:44;;;;;;;26.53;21.50;;;5.80;99.90;;;;;;6247681;23;20461;-65
2022/12/03 10:25:12;;;;;;;25.30;22.60;;;5.80;99.90;;;;;;6247498;23;20458;-63
2022/12/03 10:27:40;;;;;;;25.03;22.40;;;5.70;99.90;;;;;;6247788;23;20422;-65
2022/12/03 10:30:16;;;;;;;24.43;21.83;;;5.60;99.90;;;;;;6247786;23;20460;-64
2022/12/03 10:32:45;;;;;;;24.73;21.47;;;5.50;99.90;;;;;;6247827;23;20395;-71
2022/12/03 10:35:14;;;;;;;27.23;22.60;;;5.40;99.90;;;;;;6247589;23;20435;-64
2022/12/03 10:38:00;;;;;;;26.77;22.67;;;5.30;99.90;;;;;;6246867;23;20411;-64
2022/12/03 10:40:29;;;;;;;23.30;20.73;;;5.20;99.90;;;;;;6246473;22;20411;-64
2022/12/03 10:43:24;;;;;;;24.00;21.37;;;5.10;99.90;;;;;;6247040;23;20410;-65
2022/12/03 10:46:10;;;;;;;21.77;19.47;;;5.10;99.90;;;;;;6176710;23;20418;-65
2022/12/03 10:48:36;;;;;;;23.67;21.17;;;5.00;99.90;;;;;;6247091;23;20391;-64
2022/12/03 10:51:05;;;;;;;25.20;22.60;;;4.90;99.90;;;;;;6247001;22;20476;-65
2022/12/03 10:53:36;;;;;;;24.10;20.73;;;4.90;99.90;;;;;;6247033;23;20493;-65
2022/12/03 10:56:06;;;;;;;24.03;21.53;;;4.90;99.90;;;;;;6247259;23;20406;-65
2022/12/03 10:58:35;;;;;;;30.00;25.47;;;4.90;99.90;;;;;;6247161;23;20399;-65
2022/12/03 11:01:06;;;;;;;24.50;21.80;;;4.80;99.90;;;;;;6246535;22;20821;-65
2022/12/03 11:03:35;;;;;;;28.27;23.47;;;4.80;99.90;;;;;;6247307;23;20469;-64
2022/12/03 11:06:02;;;;;;;26.23;23.03;;;4.70;99.90;;;;;;6248870;23;20417;-65
2022/12/03 11:08:32;;;;;;;25.40;21.70;;;4.70;99.90;;;;;;6248435;23;20465;-66
2022/12/03 11:11:02;;;;;;;22.23;19.30;;;4.70;99.90;;;;;;6247891;22;20435;-66
2022/12/03 11:13:44;;;;;;;24.80;20.87;;;4.70;99.90;;;;;;6246357;23;20899;-66
2022/12/03 11:16:11;;;;;;;24.03;21.43;;;4.70;99.90;;;;;;6247368;23;20426;-66
2022/12/03 11:19:00;;;;;;;24.37;20.03;;;4.70;99.90;;;;;;6247023;23;20411;-67
2022/12/03 11:21:26;;;;;;;24.90;21.90;;;4.70;99.90;;;;;;6247049;22;20459;-66
2022/12/03 11:24:20;;;;;;;22.40;19.60;;;4.70;99.90;;;;;;6247177;23;20391;-66
2022/12/03 11:27:17;;;;;;;24.30;21.67;;;4.60;99.90;;;;;;6234135;23;20783;-67
2022/12/03 11:29:59;;;;;;;23.73;20.77;;;4.70;99.90;;;;;;6246858;23;20891;-67
2022/12/03 11:33:00;;;;;;;23.87;20.27;;;4.70;99.90;;;;;;6247735;22;20489;-68
2022/12/03 11:35:34;;;;;;;25.40;21.03;;;4.70;99.90;;;;;;6247338;23;20481;-67
2022/12/03 11:38:46;;;;;;;23.83;21.27;;;4.70;99.90;;;;;;6249632;23;20709;-67
2022/12/03 11:41:15;;;;;;;25.13;20.77;;;4.70;99.90;;;;;;6262517;22;20454;-67
2022/12/03 11:44:14;;;;;;;25.67;21.47;;;4.70;99.90;;;;;;6267747;23;20407;-68
2022/12/03 11:46:43;;;;;;;23.20;19.60;;;4.70;99.90;;;;;;6259872;23;20870;-67
2022/12/03 11:49:28;;;;;;;25.73;20.50;;;4.70;99.90;;;;;;6250661;23;20757;-67
2022/12/03 11:51:55;;;;;;;22.20;18.37;;;4.70;99.90;;;;;;6250174;22;20431;-67
2022/12/03 11:54:23;;;;;;;21.27;18.63;;;4.70;99.90;;;;;;6251209;23;20806;-67
2022/12/03 11:56:51;;;;;;;23.00;19.90;;;4.70;99.90;;;;;;6250773;23;20410;-67
2022/12/03 11:59:20;;;;;;;22.07;19.67;;;4.60;99.90;;;;;;6251910;23;20410;-66
2022/12/03 12:01:47;;;;;;;21.60;17.77;;;4.70;99.90;;;;;;6251442;22;20438;-66
2022/12/03 12:04:34;;;;;;;20.37;17.63;;;4.70;99.90;;;;;;6251775;23;20410;-66
2022/12/03 12:07:01;;;;;;;21.50;17.90;;;4.70;99.90;;;;;;6252007;23;20426;-67
2022/12/03 12:09:50;;;;;;;20.23;17.97;;;4.70;99.90;;;;;;6251161;23;20411;-66
2022/12/03 12:12:27;;;;;;;21.17;18.33;;;4.70;99.90;;;;;;6251556;22;20438;-67
2022/12/03 12:14:55;;;;;;;23.67;19.23;;;4.70;99.90;;;;;;6252031;23;20501;-66
2022/12/03 12:17:30;;;;;;;22.83;19.00;;;4.70;99.90;;;;;;6252105;23;20464;-66
2022/12/03 12:20:12;;;;;;;22.73;18.77;;;4.60;99.90;;;;;;6252095;23;20410;-67
2022/12/03 12:22:38;;;;;;;22.47;19.03;;;4.60;99.90;;;;;;6250681;22;20674;-66
2022/12/03 12:25:21;;;;;;;22.77;18.73;;;4.60;99.90;;;;;;6248729;23;20464;-65
2022/12/03 12:27:49;;;;;;;21.63;19.33;;;4.60;99.90;;;;;;6247270;23;20790;-65
2022/12/03 12:30:20;;;;;;;21.43;18.20;;;4.50;99.90;;;;;;6248451;22;20410;-65
2022/12/03 12:32:49;;;;;;;26.90;19.30;;;4.50;99.90;;;;;;6248559;23;20446;-65
2022/12/03 12:35:18;;;;;;;24.40;19.27;;;4.50;99.90;;;;;;6248482;23;20434;-65
2022/12/03 12:37:50;;;;;;;21.90;18.17;;;4.60;99.90;;;;;;6248405;23;20410;-66
2022/12/03 12:40:18;;;;;;;25.00;19.90;;;4.60;99.90;;;;;;6248742;22;20395;-65
2022/12/03 12:42:50;;;;;;;25.60;19.70;;;4.50;99.90;;;;;;6248926;23;20714;-65
2022/12/03 12:45:20;;;;;;;25.10;20.47;;;4.50;99.90;;;;;;6248969;23;20395;-66
2022/12/03 12:47:49;;;;;;;26.50;20.10;;;4.50;99.90;;;;;;6252323;23;20406;-65
2022/12/03 12:50:17;;;;;;;25.20;19.70;;;4.40;99.90;;;;;;6251918;22;20474;-65
2022/12/03 12:52:54;;;;;;;25.63;20.33;;;4.30;99.90;;;;;;6250930;23;20410;-66
2022/12/03 12:55:22;;;;;;;27.37;22.10;;;4.30;99.90;;;;;;6252326;23;20425;-66
2022/12/03 12:57:50;;;;;;;28.23;22.10;;;4.30;99.90;;;;;;6249916;23;20438;-65
2022/12/03 13:00:21;;;;;;;24.97;20.93;;;4.30;99.90;;;;;;6248476;22;20460;-65
2022/12/03 13:02:54;;;;;;;27.43;22.03;;;4.30;99.90;;;;;;6248882;23;20464;-65
2022/12/03 13:05:20;;;;;;;30.90;22.13;;;4.30;99.90;;;;;;6249421;23;20402;-65
2022/12/03 13:07:47;;;;;;;27.10;20.87;;;4.30;99.90;;;;;;6248582;23;20415;-65
2022/12/03 13:10:38;;;;;;;26.50;20.63;;;4.40;99.90;;;;;;6248358;22;20469;-65
2022/12/03 13:13:17;;;;;;;28.70;20.70;;;4.40;99.90;;;;;;6248531;23;20395;-65
2022/12/03 13:15:50;;;;;;;27.30;21.17;;;4.40;99.90;;;;;;6248796;23;20418;-65
2022/12/03 13:18:26;;;;;;;28.33;20.77;;;4.40;99.90;;;;;;6248913;23;20418;-65
2022/12/03 13:20:53;;;;;;;26.73;20.77;;;4.40;99.90;;;;;;6249969;22;20430;-65
2022/12/03 13:23:31;;;;;;;28.47;20.33;;;4.40;99.90;;;;;;6249838;23;20441;-65
2022/12/03 13:26:00;;;;;;;25.90;19.93;;;4.30;99.90;;;;;;6251199;23;20391;-65
2022/12/03 13:28:29;;;;;;;26.03;19.63;;;4.30;99.90;;;;;;6249390;23;20417;-65
2022/12/03 13:31:09;;;;;;;26.23;20.13;;;4.30;99.90;;;;;;6248020;22;20481;-66
2022/12/03 13:33:36;;;;;;;27.30;20.10;;;4.30;99.90;;;;;;6248884;23;20391;-65
2022/12/03 13:36:02;;;;;;;26.17;20.00;;;4.30;99.90;;;;;;6248074;23;20484;-65
2022/12/03 13:38:29;;;;;;;27.83;20.70;;;4.30;99.90;;;;;;6248207;23;20498;-65
2022/12/03 13:40:59;;;;;;;27.00;20.33;;;4.40;99.90;;;;;;6247222;22;20918;-65
2022/12/03 13:43:30;;;;;;;25.60;20.30;;;4.40;99.90;;;;;;6247561;23;20922;-65
2022/12/03 13:46:00;;;;;;;24.77;19.73;;;4.40;99.90;;;;;;6248020;23;20427;-65
2022/12/03 13:48:30;;;;;;;27.63;20.70;;;4.40;99.90;;;;;;6247862;23;20696;-66
2022/12/03 13:51:00;;;;;;;26.13;18.80;;;4.40;99.90;;;;;;6248293;22;20431;-65
2022/12/03 13:53:29;;;;;;;27.30;21.33;;;4.40;99.90;;;;;;6247745;23;20410;-66
2022/12/03 13:56:00;;;;;;;27.87;20.97;;;4.40;99.90;;;;;;6247382;23;20508;-65
2022/12/03 13:58:27;;;;;;;30.17;21.63;;;4.30;99.90;;;;;;6247571;23;20395;-65
2022/12/03 14:00:54;;;;;;;29.03;20.60;;;4.30;99.90;;;;;;6247049;22;20443;-66
2022/12/03 14:03:22;;;;;;;32.07;21.93;;;4.30;99.90;;;;;;6247544;23;20449;-65
2022/12/03 14:05:49;;;;;;;29.07;20.30;;;4.30;99.90;;;;;;6247389;23;20490;-65
2022/12/03 14:08:15;;;;;;;28.67;21.00;;;4.30;99.90;;;;;;6246835;23;20411;-65
2022/12/03 14:10:42;;;;;;;28.17;19.83;;;4.20;99.90;;;;;;6246907;22;20431;-65
2022/12/03 14:13:09;;;;;;;29.13;20.83;;;4.20;99.90;;;;;;6246925;23;20965;-65
2022/12/03 14:15:35;;;;;;;28.53;20.90;;;4.20;99.90;;;;;;6247149;23;20461;-65
2022/12/03 14:18:02;;;;;;;30.40;21.43;;;4.30;99.90;;;;;;6247319;23;20731;-65
2022/12/03 14:20:30;;;;;;;32.17;21.47;;;4.30;99.90;;;;;;6247023;22;20411;-65
2022/12/03 14:22:57;;;;;;;28.13;20.27;;;4.40;99.90;;;;;;6248864;23;20411;-65
2022/12/03 14:25:23;;;;;;;28.23;19.30;;;4.30;99.90;;;;;;6255345;23;20407;-65
2022/12/03 14:27:50;;;;;;;28.43;20.93;;;4.30;99.90;;;;;;6257171;23;20792;-66
2022/12/03 14:30:17;;;;;;;28.80;19.97;;;4.30;99.90;;;;;;6256679;22;20407;-66
2022/12/03 14:32:43;;;;;;;28.03;20.83;;;4.30;99.90;;;;;;6256629;23;20437;-66
2022/12/03 14:35:10;;;;;;;28.50;20.47;;;4.30;99.90;;;;;;6250238;23;20442;-65
2022/12/03 14:37:38;;;;;;;30.43;20.90;;;4.30;99.90;;;;;;6247951;23;20410;-65
2022/12/03 14:40:07;;;;;;;30.33;21.80;;;4.30;99.90;;;;;;6248397;23;20521;-65
2022/12/03 14:42:35;;;;;;;28.10;20.80;;;4.30;99.90;;;;;;6247774;22;20431;-65
2022/12/03 14:45:02;;;;;;;28.90;20.60;;;4.30;99.90;;;;;;6247116;23;20414;-65
2022/12/03 14:47:29;;;;;;;28.50;20.23;;;4.20;99.90;;;;;;6247146;23;20414;-66
2022/12/03 14:49:55;;;;;;;28.27;19.80;;;4.20;99.90;;;;;;6247452;23;20521;-66
2022/12/03 14:52:22;;;;;;;29.00;19.10;;;4.10;99.90;;;;;;6247331;22;20430;-66
2022/12/03 14:54:50;;;;;;;23.63;18.20;;;4.10;99.90;;;;;;6246997;23;20410;-66
2022/12/03 14:57:16;;;;;;;28.47;20.10;;;4.00;99.90;;;;;;6246949;23;20411;-66
2022/12/03 14:59:45;;;;;;;29.33;19.33;;;4.00;99.90;;;;;;6247157;23;20418;-66
2022/12/03 15:02:12;;;;;;;26.10;19.07;;;3.90;99.90;;;;;;6246701;22;20821;-66
2022/12/03 15:04:39;;;;;;;31.73;21.03;;;3.90;99.90;;;;;;6246920;23;20418;-66
2022/12/03 15:07:06;;;;;;;28.53;20.03;;;3.90;99.90;;;;;;6247036;23;20414;-64
2022/12/03 15:09:33;;;;;;;27.90;19.67;;;3.80;99.90;;;;;;6246730;23;20480;-65
2022/12/03 15:12:01;;;;;;;28.50;19.20;;;3.80;99.90;;;;;;6246561;22;20484;-65
2022/12/03 15:14:28;;;;;;;28.70;19.50;;;3.80;99.90;;;;;;6246538;23;20891;-65
2022/12/03 15:16:54;;;;;;;28.07;19.60;;;3.80;99.90;;;;;;6246567;23;20809;-65
2022/12/03 15:19:21;;;;;;;29.30;19.63;;;3.80;99.90;;;;;;6246938;23;20926;-65
2022/12/03 15:21:48;;;;;;;27.10;19.57;;;3.80;99.90;;;;;;6246871;22;20948;-65
2022/12/03 15:24:14;;;;;;;29.53;18.90;;;3.70;99.90;;;;;;6247542;23;20922;-66
2022/12/03 15:26:41;;;;;;;25.87;18.60;;;3.70;99.90;;;;;;6247923;23;20406;-65
2022/12/03 15:29:09;;;;;;;26.33;19.07;;;3.70;99.90;;;;;;6248118;23;20780;-65
2022/12/03 15:31:36;;;;;;;22.63;16.90;;;3.70;99.90;;;;;;6246754;22;20431;-66
2022/12/03 15:34:03;;;;;;;26.20;19.53;;;3.70;99.90;;;;;;6247576;23;20410;-66
2022/12/03 15:36:29;;;;;;;28.23;18.80;;;3.70;99.90;;;;;;6246704;23;20453;-65
2022/12/03 15:38:56;;;;;;;23.83;17.50;;;3.70;99.90;;;;;;6246465;23;20418;-66
2022/12/03 15:41:27;;;;;;;27.43;18.23;;;3.70;99.90;;;;;;6246587;22;20459;-66
2022/12/03 15:43:55;;;;;;;24.67;17.80;;;3.80;99.90;;;;;;6256747;23;20417;-65
2022/12/03 15:46:24;;;;;;;28.40;17.93;;;3.80;99.90;;;;;;6247757;23;20473;-66
2022/12/03 15:48:51;;;;;;;26.30;18.00;;;3.80;99.90;;;;;;6246542;23;20410;-64
2022/12/03 15:51:17;;;;;;;22.40;17.13;;;3.80;99.90;;;;;;6246721;22;20434;-64
2022/12/03 15:53:44;;;;;;;24.50;17.83;;;3.80;99.90;;;;;;6246643;23;20411;-65
2022/12/03 15:56:11;;;;;;;26.20;18.83;;;3.80;99.90;;;;;;6246836;23;20438;-66
2022/12/03 15:58:38;;;;;;;23.10;17.80;;;3.80;99.90;;;;;;6246519;23;20920;-66
2022/12/03 16:01:05;;;;;;;23.53;17.00;;;3.70;99.90;;;;;;6246599;22;20492;-65
2022/12/03 16:03:33;;;;;;;21.53;15.90;;;3.70;99.90;;;;;;6247239;23;20441;-65
2022/12/03 16:06:00;;;;;;;22.77;15.93;;;3.70;99.90;;;;;;6246589;23;20434;-65
2022/12/03 16:08:27;;;;;;;21.27;15.93;;;3.70;99.90;;;;;;6247559;23;20434;-65
2022/12/03 16:10:53;;;;;;;24.40;17.53;;;3.70;99.90;;;;;;6252732;22;20453;-65
2022/12/03 16:13:20;;;;;;;26.47;18.20;;;3.70;99.90;;;;;;6251945;23;20407;-65
2022/12/03 16:15:47;;;;;;;22.47;16.10;;;3.60;99.90;;;;;;6250051;23;21053;-65
2022/12/03 16:18:13;;;;;;;26.03;18.87;;;3.60;99.90;;;;;;6249897;23;20441;-65
2022/12/03 16:20:41;;;;;;;24.47;18.03;;;3.60;99.90;;;;;;6247128;22;20431;-65
2022/12/03 16:23:08;;;;;;;26.80;18.07;;;3.60;99.90;;;;;;6246943;23;20411;-65
2022/12/03 16:25:35;;;;;;;25.20;16.87;;;3.60;99.90;;;;;;6248568;23;20407;-66
2022/12/03 16:28:01;;;;;;;22.87;17.80;;;3.60;99.90;;;;;;6249249;23;20414;-66
2022/12/03 16:30:28;;;;;;;22.80;16.57;;;3.60;99.90;;;;;;6249926;22;20411;-66
2022/12/03 16:32:55;;;;;;;22.63;17.50;;;3.60;99.90;;;;;;6249550;23;20411;-66
2022/12/03 16:35:21;;;;;;;23.87;16.80;;;3.60;99.90;;;;;;6248070;23;20411;-66
2022/12/03 16:37:49;;;;;;;21.60;17.20;;;3.60;99.90;;;;;;6247796;23;20415;-66
2022/12/03 16:40:16;;;;;;;21.63;16.73;;;3.60;99.90;;;;;;6250363;22;20410;-66
2022/12/03 16:42:43;;;;;;;26.57;17.13;;;3.60;99.90;;;;;;6250854;23;20410;-66
2022/12/03 16:45:32;;;;;;;22.37;16.87;;;3.70;99.90;;;;;;6251969;23;20461;-64
2022/12/03 16:48:00;;;;;;;23.77;16.73;;;3.70;99.90;;;;;;6249651;23;20391;-67
2022/12/03 16:50:27;;;;;;;23.70;17.73;;;3.70;99.90;;;;;;6249511;22;20399;-69
2022/12/03 16:52:55;;;;;;;23.37;17.83;;;3.70;99.90;;;;;;6250630;23;20419;-74
2022/12/03 16:55:21;;;;;;;23.13;18.27;;;3.70;99.90;;;;;;6251954;23;20418;-66
2022/12/03 16:57:48;;;;;;;21.80;16.43;;;3.70;99.90;;;;;;6252861;23;20414;-66
2022/12/03 17:00:16;;;;;;;21.43;16.80;;;3.60;99.90;;;;;;6251726;23;20396;-66
2022/12/03 17:02:43;;;;;;;23.43;18.63;;;3.60;99.90;;;;;;6253431;23;20494;-66
2022/12/03 17:05:09;;;;;;;25.10;19.63;;;3.60;99.90;;;;;;6251658;23;20395;-65
2022/12/03 17:07:36;;;;;;;23.13;19.00;;;3.60;99.90;;;;;;6252171;23;20766;-65
2022/12/03 17:10:05;;;;;;;24.73;18.63;;;3.60;99.90;;;;;;6251718;23;20415;-66
2022/12/03 17:12:32;;;;;;;23.93;18.73;;;3.60;99.90;;;;;;6252381;22;20461;-66
2022/12/03 17:14:58;;;;;;;24.07;18.80;;;3.50;99.90;;;;;;6252305;23;20464;-65
2022/12/03 17:17:25;;;;;;;22.37;17.93;;;3.50;99.90;;;;;;6252412;23;20442;-65
2022/12/03 17:19:52;;;;;;;25.90;19.30;;;3.40;99.90;;;;;;6251234;23;20411;-66
2022/12/03 17:22:19;;;;;;;23.97;18.37;;;3.40;99.90;;;;;;6248266;22;20431;-65
2022/12/03 17:24:46;;;;;;;27.70;19.63;;;3.40;99.90;;;;;;6248518;23;20464;-62
2022/12/03 17:27:14;;;;;;;26.13;19.67;;;3.40;99.90;;;;;;6248256;23;20407;-62
2022/12/03 17:29:41;;;;;;;25.40;19.37;;;3.40;99.90;;;;;;6248251;23;20439;-62
2022/12/03 17:32:08;;;;;;;25.53;18.80;;;3.40;99.90;;;;;;6247747;22;20763;-62
2022/12/03 17:34:34;;;;;;;27.27;20.07;;;3.40;99.90;;;;;;6248509;23;20411;-63
2022/12/03 17:37:01;;;;;;;28.07;20.40;;;3.40;99.90;;;;;;6248453;23;20430;-63
2022/12/03 17:39:28;;;;;;;25.33;19.23;;;3.40;99.90;;;;;;6249201;23;20410;-63
2022/12/03 17:41:54;;;;;;;25.70;19.20;;;3.40;99.90;;;;;;6248372;22;20431;-63
2022/12/03 17:44:23;;;;;;;24.30;18.00;;;3.50;99.90;;;;;;6248180;23;20411;-63
2022/12/03 17:46:49;;;;;;;24.43;18.50;;;3.40;99.90;;;;;;6248150;23;20439;-62
2022/12/03 17:49:16;;;;;;;28.97;20.43;;;3.40;99.90;;;;;;6247356;23;20411;-63
2022/12/03 17:51:43;;;;;;;26.47;19.67;;;3.40;99.90;;;;;;6247887;22;20434;-63